Terminal Aerodrome Forecast
Issued by NWS

Home | Current Version | Previous Version | Text Only | Print | Product List | Glossary On
Versions: 1 2 3 4 5 6 7 8 9 10 11 12 13 14 15 16 17 18 19
000
FTUS43 KGRR 032337
TAFBTL
TAF
KBTL 032337Z 0400/0424 29008KT P6SM SKC
     FM041000 29002KT 1 1/2SM BR OVC003
     FM041400 28003KT 2SM BR OVC003
     FM041600 27003KT 4SM BR BKN015
     FM041800 25005KT P6SM BKN050=

USA.gov is the U.S. government's official web portal to all federal, state and local government web resources and services.